メインページ
METAR-TAF:

METAR-TAF

空港 :

マルティニーク・エメ・セゼール国際空港

フォール=ド=フランス, マルティニーク

緯度: 14-36N, 経度: 061-00W, 海抜: 5m

現時点の気象観測

当レポートは15分前の07:00(UTC)に作成
東/北東の風 4kt
気温 24°C
湿度 89%
気圧 1009 hPa
視程10km以上
高度3700ftの雲はほとんどない

METAR: TFFF 200700Z AUTO 06004KT 9999 FEW037 24/22 Q1009 TEMPO 4000 SHRA SCT018TCU

時間: 03:15 (07:15 UTC)

予報

当レポートは2時間15分前の05:00(UTC)に作成
予報は20日の 06時(UTC)から 21日の 06時(UTC)まで有効
変向風 2kt
視程10km以上
高度2500ftの雲は散在している
確率 30% :
20日の 06時(UTC)から 20日の 16時(UTC)まで一時的に
視程: 4000m
高度1800ftの雲は散在している, 塔状積雲.
にわか雨
20日の 11時(UTC)から 20日の 13時(UTC)まで徐々に
の風 10kt
20日の 16時(UTC)から 21日の 06時(UTC)まで一時的に
視程: 3000m
高度1500ftの雲は散在している, 積乱雲.
にわか雨

TAF: TFFF 200500Z 2006/2106 VRB02KT 9999 SCT025 PROB30 TEMPO 2006/2016 4000 SHRA SCT018TCU BECMG 2011/2013 10010KT TEMPO 2016/2106 3000 SHRA SCT015CB

4,000以上の空港の気象観測と天気予報(METAR報とTAF報)

利用可能な観測所は地図上に黄色い丸と赤い丸で示す。

丸の上にカーソルを重ねると観測所名を参照できる。

次にクリックすると気象観測と天気予報を参照できる。

マップの切り替え:黒色「×」印の緑ボタンをクリックして拡大、「-」印の緑ボタンをクリックして縮小、緑色の三角印をクリックして隣りの地図に切り替え


METAR-TAF: